createdAt,value
2022-09-27T00:00:52.039Z,89.20
2022-09-27T00:01:52.177Z,88.79
2022-09-27T00:02:52.128Z,88.70
2022-09-27T00:03:52.013Z,88.79
2022-09-27T00:04:52.007Z,89.61
2022-09-27T00:05:52.024Z,89.20
2022-09-27T00:06:51.981Z,89.00
2022-09-27T00:07:51.981Z,89.31
2022-09-27T00:08:51.949Z,87.98
2022-09-27T00:09:51.962Z,87.88
2022-09-27T00:10:51.951Z,86.85
2022-09-27T00:11:51.966Z,88.29
2022-09-27T00:12:51.920Z,88.39
2022-09-27T00:13:51.917Z,88.49
2022-09-27T00:14:51.884Z,88.39
2022-09-27T00:15:51.920Z,89.51
2022-09-27T00:16:51.898Z,89.82
2022-09-27T00:17:51.857Z,90.53
2022-09-27T00:18:51.846Z,90.84
2022-09-27T00:19:51.864Z,90.94
2022-09-27T00:20:51.827Z,89.92
2022-09-27T00:21:51.817Z,90.53
2022-09-27T00:22:51.793Z,91.15
2022-09-27T00:23:51.817Z,89.51
2022-09-27T00:24:51.804Z,90.74
2022-09-27T00:25:51.768Z,91.46
2022-09-27T00:26:51.761Z,91.35
2022-09-27T00:27:51.756Z,92.17
2022-09-27T00:28:51.729Z,92.47
2022-09-27T00:29:51.743Z,92.93
2022-09-27T00:30:51.818Z,92.27
2022-09-27T00:31:51.693Z,92.58
2022-09-27T00:32:51.699Z,92.47
2022-09-27T00:33:51.671Z,91.60
2022-09-27T00:34:51.675Z,91.50
2022-09-27T00:35:51.663Z,92.21
2022-09-27T00:36:51.681Z,92.32
2022-09-27T00:37:51.633Z,93.24
2022-09-27T00:38:51.631Z,93.85
2022-09-27T00:39:51.603Z,94.36
2022-09-27T00:40:51.692Z,93.91
2022-09-27T00:41:51.596Z,92.93
2022-09-27T00:42:51.610Z,93.24
2022-09-27T00:43:51.575Z,93.95
2022-09-27T00:44:51.563Z,94.06
2022-09-27T00:45:51.639Z,93.74
2022-09-27T00:46:51.541Z,94.36
2022-09-27T00:47:51.541Z,93.95
2022-09-27T00:48:51.507Z,94.06
2022-09-27T00:49:51.514Z,94.15
2022-09-27T00:50:51.505Z,93.54
2022-09-27T00:51:51.478Z,94.56
2022-09-27T00:52:51.468Z,93.95
2022-09-27T00:53:51.490Z,93.85
2022-09-27T00:54:51.448Z,93.74
2022-09-27T00:55:51.438Z,93.74
2022-09-27T00:56:51.449Z,93.95
2022-09-27T00:57:51.413Z,93.95
2022-09-27T00:58:51.394Z,94.15
2022-09-27T00:59:51.425Z,95.28
2022-09-27T01:00:51.384Z,95.48
2022-09-27T01:01:51.506Z,96.10
2022-09-27T01:02:51.515Z,95.38
2022-09-27T01:03:51.521Z,95.69
2022-09-27T01:04:51.338Z,95.89
2022-09-27T01:05:51.351Z,96.20
2022-09-27T01:06:51.325Z,96.20
2022-09-27T01:07:51.294Z,95.89
2022-09-27T01:08:51.283Z,96.00
2022-09-27T01:09:51.293Z,95.79
2022-09-27T01:10:51.303Z,95.63
2022-09-27T01:11:51.256Z,95.02
2022-09-27T01:12:51.252Z,95.32
2022-09-27T01:13:51.234Z,95.84
2022-09-27T01:14:51.221Z,96.75
2022-09-27T01:15:51.293Z,96.34
2022-09-27T01:16:51.193Z,96.45
2022-09-27T01:17:51.214Z,95.94
2022-09-27T01:18:51.186Z,96.34
2022-09-27T01:19:51.193Z,97.37
2022-09-27T01:20:51.160Z,96.45
2022-09-27T01:21:51.140Z,95.67
2022-09-27T01:22:51.125Z,95.57
2022-09-27T01:23:51.138Z,95.73
2022-09-27T01:24:51.130Z,95.53
2022-09-27T01:25:51.104Z,95.78
2022-09-27T01:26:51.102Z,95.94
2022-09-27T01:27:51.094Z,96.55
2022-09-27T01:28:51.116Z,95.98
2022-09-27T01:29:51.065Z,96.55
2022-09-27T01:30:51.106Z,97.06
2022-09-27T01:31:51.031Z,96.19
2022-09-27T01:32:51.038Z,96.04
2022-09-27T01:33:51.040Z,96.96
2022-09-27T01:34:51.005Z,96.34
2022-09-27T01:35:50.998Z,95.94
2022-09-27T01:36:50.969Z,96.75
2022-09-27T01:37:50.991Z,96.25
2022-09-27T01:38:50.978Z,96.39
2022-09-27T01:39:50.939Z,95.73
2022-09-27T01:40:51.015Z,95.73
2022-09-27T01:41:50.939Z,95.47
2022-09-27T01:42:50.902Z,95.53
2022-09-27T01:43:50.955Z,96.34
2022-09-27T01:44:50.902Z,96.49
2022-09-27T01:45:50.950Z,95.88
2022-09-27T01:46:50.882Z,96.08
2022-09-27T01:47:50.883Z,95.37
2022-09-27T01:48:50.843Z,95.63
2022-09-27T01:49:50.843Z,95.47
2022-09-27T01:50:50.897Z,95.37
2022-09-27T01:51:50.813Z,95.88
2022-09-27T01:52:50.814Z,95.12
2022-09-27T01:53:50.780Z,95.37
2022-09-27T01:54:50.780Z,95.37
2022-09-27T01:55:50.782Z,96.04
2022-09-27T01:56:50.802Z,97.06
2022-09-27T01:57:50.754Z,96.49
2022-09-27T01:58:50.748Z,96.86
2022-09-27T01:59:50.715Z,96.55
2022-09-27T02:00:50.720Z,96.70
2022-09-27T02:01:50.808Z,96.59
2022-09-27T02:02:50.759Z,97.41
2022-09-27T02:03:50.695Z,97.52
2022-09-27T02:04:50.668Z,97.52
2022-09-27T02:05:50.672Z,97.52
2022-09-27T02:06:50.657Z,97.41
2022-09-27T02:07:50.656Z,97.41
2022-09-27T02:08:50.627Z,97.72
2022-09-27T02:09:50.638Z,97.41
2022-09-27T02:10:50.634Z,97.62
2022-09-27T02:11:55.345Z,97.11
2022-09-27T02:12:51.575Z,97.31
2022-09-27T02:13:50.590Z,96.29
2022-09-27T02:14:50.563Z,97.41
2022-09-27T02:15:50.572Z,96.29
2022-09-27T02:16:50.523Z,96.80
2022-09-27T02:17:50.529Z,97.00
2022-09-27T02:18:50.543Z,96.80
2022-09-27T02:19:50.543Z,97.11
2022-09-27T02:20:50.504Z,97.52
2022-09-27T02:21:50.498Z,97.11
2022-09-27T02:22:50.464Z,98.65
2022-09-27T02:23:50.467Z,97.82
2022-09-27T02:24:50.473Z,97.00
2022-09-27T02:25:50.435Z,96.91
2022-09-27T02:26:50.448Z,97.72
2022-09-27T02:27:50.457Z,97.92
2022-09-27T02:28:50.407Z,98.13
2022-09-27T02:29:50.396Z,97.25
2022-09-27T02:30:50.408Z,98.07
2022-09-27T02:31:50.374Z,98.07
2022-09-27T02:32:50.347Z,99.30
2022-09-27T02:33:50.376Z,98.99
2022-09-27T02:34:50.348Z,98.12
2022-09-27T02:35:50.334Z,97.97
2022-09-27T02:36:50.327Z,98.38
2022-09-27T02:37:50.329Z,98.49
2022-09-27T02:38:50.278Z,98.38
2022-09-27T02:39:50.277Z,98.90
2022-09-27T02:40:50.342Z,99.35
2022-09-27T02:41:50.287Z,98.74
2022-09-27T02:42:50.252Z,98.99
2022-09-27T02:43:50.253Z,99.10
2022-09-27T02:44:50.209Z,98.43
2022-09-27T02:45:50.233Z,98.99
2022-09-27T02:46:50.220Z,99.04
2022-09-27T02:47:50.228Z,98.94
2022-09-27T02:48:50.185Z,99.04
2022-09-27T02:49:50.182Z,98.22
2022-09-27T02:50:50.142Z,98.22
2022-09-27T02:51:50.150Z,99.35
2022-09-27T02:52:50.156Z,98.43
2022-09-27T02:53:50.139Z,98.63
2022-09-27T02:54:50.124Z,99.04
2022-09-27T02:55:50.089Z,98.74
2022-09-27T02:56:50.080Z,98.12
2022-09-27T02:57:50.095Z,97.91
2022-09-27T02:58:50.510Z,98.12
2022-09-27T02:59:50.069Z,98.63
2022-09-27T03:00:50.071Z,99.04
2022-09-27T03:01:50.053Z,99.25
2022-09-27T03:02:50.090Z,98.74
2022-09-27T03:03:50.026Z,99.45
2022-09-27T03:04:50.033Z,99.15
2022-09-27T03:05:49.998Z,99.45
2022-09-27T03:06:49.997Z,99.55
2022-09-27T03:07:50.011Z,99.99
2022-09-27T03:08:50.004Z,99.86
2022-09-27T03:09:49.962Z,99.99
2022-09-27T03:10:49.972Z,99.91
2022-09-27T03:11:49.938Z,99.99
2022-09-27T03:12:49.927Z,99.99
2022-09-27T03:14:08.013Z,99.99
2022-09-27T03:14:50.930Z,99.99
2022-09-27T03:15:49.915Z,99.99
2022-09-27T03:16:49.947Z,99.99
2022-09-27T03:17:49.871Z,99.99
2022-09-27T03:18:49.830Z,99.99
2022-09-27T03:19:49.829Z,99.99
2022-09-27T03:20:49.837Z,99.99
2022-09-27T03:21:49.854Z,99.99
2022-09-27T03:22:49.804Z,99.99
2022-09-27T03:23:49.799Z,99.99
2022-09-27T03:24:49.761Z,99.99
2022-09-27T03:25:49.786Z,99.99
2022-09-27T03:26:49.779Z,99.99
2022-09-27T03:27:49.771Z,99.99
2022-09-27T03:28:49.742Z,99.99
2022-09-27T03:29:49.750Z,99.99
2022-09-27T03:30:49.755Z,99.99
2022-09-27T03:31:49.697Z,99.99
2022-09-27T03:32:49.709Z,99.99
2022-09-27T03:33:49.674Z,99.99
2022-09-27T03:34:49.671Z,99.99
2022-09-27T03:35:49.680Z,99.99
2022-09-27T03:36:49.639Z,99.99
2022-09-27T03:37:49.635Z,99.99
2022-09-27T03:38:49.611Z,99.99
2022-09-27T03:39:49.618Z,99.99
2022-09-27T03:40:49.655Z,99.99
2022-09-27T03:41:50.514Z,99.99
2022-09-27T03:42:49.954Z,99.99
2022-09-27T03:43:49.586Z,99.99
2022-09-27T03:44:49.592Z,99.99
2022-09-27T03:45:49.572Z,99.99
2022-09-27T03:46:49.550Z,99.99
2022-09-27T03:47:49.514Z,99.99
2022-09-27T03:48:49.518Z,99.99
2022-09-27T03:49:49.511Z,99.99
2022-09-27T03:50:49.487Z,99.99
2022-09-27T03:51:49.495Z,99.99
2022-09-27T03:52:49.450Z,99.99
2022-09-27T03:53:49.511Z,99.99
2022-09-27T03:54:49.446Z,99.99
2022-09-27T03:55:49.450Z,99.99
2022-09-27T03:56:49.425Z,99.99
2022-09-27T03:57:49.449Z,99.99
2022-09-27T03:58:49.391Z,99.99
2022-09-27T03:59:49.391Z,99.99
2022-09-27T04:00:49.427Z,99.99
2022-09-27T04:01:49.458Z,99.99
2022-09-27T04:02:49.413Z,99.99
2022-09-27T04:03:49.361Z,99.99
2022-09-27T04:04:49.323Z,99.99
2022-09-27T04:05:49.306Z,99.99
2022-09-27T04:06:49.339Z,99.99
2022-09-27T04:07:49.296Z,99.99
2022-09-27T04:08:49.303Z,99.99
2022-09-27T04:09:49.260Z,99.99
2022-09-27T04:10:49.264Z,99.99
2022-09-27T04:11:49.258Z,99.99
2022-09-27T04:12:49.265Z,99.99
2022-09-27T04:13:49.267Z,99.99
2022-09-27T04:14:49.244Z,99.99
2022-09-27T04:15:52.174Z,99.99
2022-09-27T04:16:49.250Z,99.99
2022-09-27T04:17:49.191Z,99.99
2022-09-27T04:18:49.168Z,99.99
2022-09-27T04:19:49.176Z,99.99
2022-09-27T04:20:49.177Z,99.99
2022-09-27T04:21:49.131Z,99.99
2022-09-27T04:22:49.138Z,99.99
2022-09-27T04:23:49.152Z,99.99
2022-09-27T04:24:49.108Z,99.99
2022-09-27T04:25:49.102Z,99.99
2022-09-27T04:26:49.076Z,99.99
2022-09-27T04:27:49.069Z,99.99
2022-09-27T04:28:54.072Z,99.99
2022-09-27T04:29:50.081Z,99.99
2022-09-27T04:30:49.173Z,99.99
2022-09-27T04:31:49.045Z,99.99
2022-09-27T04:32:49.002Z,99.66
2022-09-27T04:33:49.009Z,99.99
2022-09-27T04:34:49.018Z,99.66
2022-09-27T04:35:48.978Z,99.70
2022-09-27T04:36:48.986Z,99.25
2022-09-27T04:37:48.993Z,99.19
2022-09-27T04:38:48.942Z,98.94
2022-09-27T04:39:48.949Z,98.53
2022-09-27T04:40:49.213Z,99.15
2022-09-27T04:41:48.921Z,99.35
2022-09-27T04:42:48.913Z,99.35
2022-09-27T04:43:48.879Z,99.99
2022-09-27T04:44:48.883Z,99.99
2022-09-27T04:45:48.962Z,98.94
2022-09-27T04:46:48.850Z,98.22
2022-09-27T04:47:48.859Z,99.15
2022-09-27T04:48:48.868Z,99.04
2022-09-27T04:49:48.871Z,98.43
2022-09-27T04:50:48.805Z,98.43
2022-09-27T04:51:48.832Z,98.63
2022-09-27T04:52:48.788Z,98.94
2022-09-27T04:53:48.785Z,98.63
2022-09-27T04:54:48.806Z,99.25
2022-09-27T04:55:48.755Z,98.53
2022-09-27T04:56:48.749Z,98.33
2022-09-27T04:57:48.724Z,98.37
2022-09-27T04:58:48.732Z,98.43
2022-09-27T04:59:48.735Z,98.94
2022-09-27T05:00:48.688Z,98.94
2022-09-27T05:01:48.731Z,98.33
2022-09-27T05:02:48.829Z,98.22
2022-09-27T05:03:48.661Z,99.15
2022-09-27T05:04:48.668Z,99.15
2022-09-27T05:05:48.664Z,99.15
2022-09-27T05:06:50.681Z,98.94
2022-09-27T05:07:48.683Z,99.15
2022-09-27T05:08:48.622Z,98.94
2022-09-27T05:09:48.600Z,98.33
2022-09-27T05:10:48.594Z,98.12
2022-09-27T05:11:48.615Z,98.22
2022-09-27T05:12:48.559Z,98.83
2022-09-27T05:13:48.555Z,97.91
2022-09-27T05:14:48.539Z,98.02
2022-09-27T05:15:48.538Z,97.50
2022-09-27T05:16:48.594Z,98.43
2022-09-27T05:17:48.516Z,97.91
2022-09-27T05:18:48.500Z,97.91
2022-09-27T05:19:48.501Z,98.53
2022-09-27T05:20:48.516Z,98.53
2022-09-27T05:21:48.479Z,98.12
2022-09-27T05:22:48.441Z,98.33
2022-09-27T05:23:48.432Z,97.61
2022-09-27T05:24:48.430Z,97.40
2022-09-27T05:25:48.445Z,97.81
2022-09-27T05:26:48.413Z,98.33
2022-09-27T05:27:48.459Z,98.79
2022-09-27T05:28:48.376Z,98.58
2022-09-27T05:29:48.370Z,98.02
2022-09-27T05:30:48.398Z,97.91
2022-09-27T05:31:48.345Z,97.09
2022-09-27T05:32:48.362Z,98.38
2022-09-27T05:33:48.459Z,98.12
2022-09-27T05:34:48.309Z,98.22
2022-09-27T05:35:48.309Z,98.38
2022-09-27T05:36:48.316Z,98.18
2022-09-27T05:37:48.311Z,97.50
2022-09-27T05:38:48.273Z,97.87
2022-09-27T05:39:48.298Z,98.12
2022-09-27T05:40:48.372Z,98.38
2022-09-27T05:41:48.339Z,98.49
2022-09-27T05:42:48.244Z,97.97
2022-09-27T05:43:48.217Z,97.05
2022-09-27T05:44:48.226Z,97.50
2022-09-27T05:45:48.288Z,96.95
2022-09-27T05:46:48.189Z,97.77
2022-09-27T05:47:48.174Z,97.66
2022-09-27T05:48:48.152Z,97.77
2022-09-27T05:49:48.175Z,96.74
2022-09-27T05:50:48.152Z,96.95
2022-09-27T05:51:48.125Z,96.74
2022-09-27T05:52:48.120Z,96.54
2022-09-27T05:53:48.136Z,96.54
2022-09-27T05:54:48.119Z,97.05
2022-09-27T05:55:48.092Z,96.95
2022-09-27T05:56:48.066Z,96.74
2022-09-27T05:57:48.052Z,96.03
2022-09-27T05:58:48.127Z,96.13
2022-09-27T05:59:48.055Z,96.23
2022-09-27T06:00:48.034Z,96.44
2022-09-27T06:01:48.059Z,95.62
2022-09-27T06:02:48.042Z,96.84
2022-09-27T06:03:47.993Z,96.64
2022-09-27T06:04:48.004Z,97.20
2022-09-27T06:05:51.364Z,96.03
2022-09-27T06:06:47.968Z,95.97
2022-09-27T06:07:47.978Z,96.28
2022-09-27T06:08:47.969Z,96.17
2022-09-27T06:09:47.917Z,95.97
2022-09-27T06:10:47.946Z,96.07
2022-09-27T06:11:47.905Z,95.87
2022-09-27T06:12:47.899Z,95.92
2022-09-27T06:13:47.912Z,96.48
2022-09-27T06:14:47.867Z,95.62
2022-09-27T06:15:47.854Z,96.13
2022-09-27T06:16:47.876Z,95.31
2022-09-27T06:17:47.841Z,95.92
2022-09-27T06:18:47.841Z,95.57
2022-09-27T06:19:47.859Z,95.78
2022-09-27T06:20:47.800Z,95.88
2022-09-27T06:21:47.826Z,95.78
2022-09-27T06:22:47.807Z,97.11
2022-09-27T06:23:51.895Z,97.52
2022-09-27T06:24:48.749Z,97.62
2022-09-27T06:25:47.740Z,98.33
2022-09-27T06:26:47.772Z,98.58
2022-09-27T06:27:47.728Z,98.07
2022-09-27T06:28:47.744Z,98.43
2022-09-27T06:29:47.718Z,98.43
2022-09-27T06:30:47.813Z,97.71
2022-09-27T06:31:47.671Z,97.50
2022-09-27T06:32:47.678Z,97.50
2022-09-27T06:33:47.647Z,97.34
2022-09-27T06:34:47.653Z,97.55
2022-09-27T06:35:47.645Z,98.16
2022-09-27T06:36:50.745Z,98.07
2022-09-27T06:37:47.644Z,98.22
2022-09-27T06:38:47.618Z,97.96
2022-09-27T06:39:47.585Z,97.75
2022-09-27T06:40:47.674Z,98.22
2022-09-27T06:41:47.592Z,98.53
2022-09-27T06:42:47.548Z,98.33
2022-09-27T06:43:47.537Z,97.61
2022-09-27T06:44:50.170Z,97.61
2022-09-27T06:45:47.588Z,97.09
2022-09-27T06:46:47.528Z,96.89
2022-09-27T06:47:47.542Z,96.69
2022-09-27T06:48:47.484Z,96.99
2022-09-27T06:49:47.498Z,97.30
2022-09-27T06:50:47.460Z,97.61
2022-09-27T06:51:47.463Z,97.65
2022-09-27T06:52:47.456Z,97.71
2022-09-27T06:53:47.471Z,97.09
2022-09-27T06:54:47.418Z,97.09
2022-09-27T06:55:47.425Z,97.91
2022-09-27T06:56:47.434Z,97.30
2022-09-27T06:57:47.410Z,97.71
2022-09-27T06:58:47.399Z,96.48
2022-09-27T06:59:47.363Z,95.56
2022-09-27T07:00:47.395Z,95.41
2022-09-27T07:01:47.489Z,95.62
2022-09-27T07:02:47.332Z,95.17
2022-09-27T07:03:47.335Z,94.75
2022-09-27T07:04:47.305Z,93.84
2022-09-27T07:05:47.290Z,94.10
2022-09-27T07:06:47.363Z,95.43
2022-09-27T07:07:47.270Z,93.89
2022-09-27T07:08:47.275Z,92.19
2022-09-27T07:09:47.260Z,92.30
2022-09-27T07:10:47.261Z,91.95
2022-09-27T07:11:47.223Z,92.30
2022-09-27T07:12:47.243Z,92.15
2022-09-27T07:13:47.204Z,92.77
2022-09-27T07:14:47.215Z,92.05
2022-09-27T07:15:47.215Z,91.13
2022-09-27T07:16:47.198Z,91.54
2022-09-27T07:17:47.156Z,91.64
2022-09-27T07:18:47.181Z,92.25
2022-09-27T07:19:47.150Z,91.85
2022-09-27T07:20:47.139Z,90.52
2022-09-27T07:21:47.176Z,92.36
2022-09-27T07:22:47.106Z,91.13
2022-09-27T07:23:47.110Z,92.25
2022-09-27T07:24:47.080Z,92.15
2022-09-27T07:25:47.101Z,92.46
2022-09-27T07:26:47.055Z,91.64
2022-09-27T07:27:47.064Z,92.25
2022-09-27T07:28:47.033Z,91.54
2022-09-27T07:29:47.034Z,90.72
2022-09-27T07:30:47.065Z,90.62
2022-09-27T07:31:47.012Z,90.99
2022-09-27T07:32:47.015Z,89.09
2022-09-27T07:33:46.983Z,89.45
2022-09-27T07:34:46.968Z,89.45
2022-09-27T07:35:46.978Z,89.45
2022-09-27T07:36:46.962Z,90.88
2022-09-27T07:37:46.948Z,89.76
2022-09-27T07:38:46.921Z,88.33
2022-09-27T07:39:46.925Z,89.25
2022-09-27T07:40:46.956Z,88.12
2022-09-27T07:41:46.907Z,88.70
2022-09-27T07:42:46.896Z,88.79
2022-09-27T07:43:46.889Z,88.94
2022-09-27T07:44:46.858Z,89.72
2022-09-27T07:45:46.917Z,90.02
2022-09-27T07:46:46.854Z,88.84
2022-09-27T07:47:46.860Z,88.74
2022-09-27T07:48:46.833Z,88.74
2022-09-27T07:49:46.806Z,89.61
2022-09-27T07:50:46.786Z,90.12
2022-09-27T07:51:46.790Z,90.84
2022-09-27T07:52:46.765Z,90.84
2022-09-27T07:53:46.769Z,89.82
2022-09-27T07:54:46.769Z,90.12
2022-09-27T07:55:46.729Z,88.29
2022-09-27T07:56:46.722Z,88.70
2022-09-27T07:57:46.747Z,89.92
2022-09-27T07:58:46.722Z,89.61
2022-09-27T07:59:46.696Z,89.41
2022-09-27T08:00:46.845Z,88.08
2022-09-27T08:01:46.671Z,89.72
2022-09-27T08:02:46.655Z,90.06
2022-09-27T08:03:46.669Z,89.65
2022-09-27T08:04:46.637Z,90.17
2022-09-27T08:05:46.636Z,89.45
2022-09-27T08:06:46.643Z,91.09
2022-09-27T08:07:46.596Z,89.97
2022-09-27T08:08:54.539Z,91.60
2022-09-27T08:09:46.605Z,91.19
2022-09-27T08:10:46.578Z,90.17
2022-09-27T08:11:46.565Z,89.45
2022-09-27T08:12:46.545Z,90.78
2022-09-27T08:13:46.581Z,89.76
2022-09-27T08:14:48.386Z,89.29
2022-09-27T08:15:46.546Z,89.70
2022-09-27T08:16:46.575Z,91.39
2022-09-27T08:17:46.492Z,91.44
2022-09-27T08:18:46.484Z,91.13
2022-09-27T08:19:46.471Z,90.41
2022-09-27T08:20:46.471Z,89.39
2022-09-27T08:21:46.481Z,90.92
2022-09-27T08:22:46.456Z,89.43
2022-09-27T08:23:46.427Z,89.90
2022-09-27T08:24:46.415Z,90.00
2022-09-27T08:25:46.409Z,90.11
2022-09-27T08:26:46.419Z,89.74
2022-09-27T08:27:46.466Z,90.05
2022-09-27T08:28:46.388Z,89.64
2022-09-27T08:29:46.417Z,90.36
2022-09-27T08:30:46.343Z,90.82
2022-09-27T08:31:46.405Z,89.80
2022-09-27T08:32:46.335Z,89.09
2022-09-27T08:33:46.314Z,88.78
2022-09-27T08:34:46.397Z,88.47
2022-09-27T08:35:46.286Z,87.70
2022-09-27T08:36:46.294Z,88.06
2022-09-27T08:37:46.283Z,88.10
2022-09-27T08:38:46.290Z,87.76
2022-09-27T08:39:48.115Z,88.78
2022-09-27T08:40:46.270Z,88.57
2022-09-27T08:41:46.221Z,88.33
2022-09-27T08:42:46.236Z,88.12
2022-09-27T08:43:46.223Z,88.02
2022-09-27T08:44:46.212Z,88.29
2022-09-27T08:45:46.251Z,88.59
2022-09-27T08:46:46.174Z,86.76
2022-09-27T08:47:46.167Z,86.85
2022-09-27T08:48:46.193Z,87.98
2022-09-27T08:49:46.158Z,87.63
2022-09-27T08:50:46.138Z,87.12
2022-09-27T08:51:46.107Z,87.02
2022-09-27T08:52:46.139Z,86.30
2022-09-27T08:53:46.085Z,86.30
2022-09-27T08:54:46.087Z,87.02
2022-09-27T08:55:46.087Z,87.73
2022-09-27T08:56:46.064Z,88.55
2022-09-27T08:57:46.040Z,87.63
2022-09-27T08:58:46.029Z,84.47
2022-09-27T08:59:46.025Z,84.06
2022-09-27T09:00:46.099Z,83.14
2022-09-27T09:01:46.103Z,82.73
2022-09-27T09:02:46.044Z,81.71
2022-09-27T09:03:45.974Z,82.53
2022-09-27T09:04:45.971Z,83.24
2022-09-27T09:05:45.963Z,81.71
2022-09-27T09:06:45.956Z,81.81
2022-09-27T09:07:45.971Z,82.93
2022-09-27T09:08:50.693Z,82.93
2022-09-27T09:09:46.934Z,82.93
2022-09-27T09:10:45.898Z,82.32
2022-09-27T09:11:45.903Z,82.22
2022-09-27T09:12:45.896Z,82.93
2022-09-27T09:13:45.876Z,84.12
2022-09-27T09:14:45.853Z,82.89
2022-09-27T09:15:45.848Z,84.12
2022-09-27T09:16:45.878Z,84.42
2022-09-27T09:17:45.871Z,84.33
2022-09-27T09:18:45.840Z,82.28
2022-09-27T09:19:45.825Z,81.26
2022-09-27T09:20:45.785Z,81.84
2022-09-27T09:21:45.808Z,81.02
2022-09-27T09:22:45.774Z,82.14
2022-09-27T09:23:45.767Z,82.35
2022-09-27T09:24:45.751Z,82.45
2022-09-27T09:25:45.758Z,82.14
2022-09-27T09:26:45.725Z,81.32
2022-09-27T09:27:45.738Z,80.10
2022-09-27T09:28:45.715Z,81.23
2022-09-27T09:29:45.696Z,81.43
2022-09-27T09:30:45.732Z,81.73
2022-09-27T09:31:45.695Z,81.32
2022-09-27T09:32:45.654Z,81.02
2022-09-27T09:33:45.685Z,81.32
2022-09-27T09:34:45.636Z,82.65
2022-09-27T09:35:45.669Z,82.65
2022-09-27T09:36:45.651Z,82.14
2022-09-27T09:37:45.613Z,83.33
2022-09-27T09:38:45.587Z,80.27
2022-09-27T09:39:45.589Z,80.27
2022-09-27T09:40:45.645Z,80.37
2022-09-27T09:41:45.602Z,80.47
2022-09-27T09:42:45.569Z,80.20
2022-09-27T09:43:45.532Z,80.10
2022-09-27T09:44:45.535Z,81.23
2022-09-27T09:45:45.591Z,80.61
2022-09-27T09:46:46.052Z,79.49
2022-09-27T09:47:45.541Z,78.30
2022-09-27T09:48:45.485Z,78.91
2022-09-27T09:49:45.498Z,78.34
2022-09-27T09:50:45.454Z,79.12
2022-09-27T09:51:45.473Z,79.16
2022-09-27T09:52:45.468Z,79.12
2022-09-27T09:53:45.470Z,78.95
2022-09-27T09:54:45.418Z,77.86
2022-09-27T09:55:45.397Z,79.19
2022-09-27T09:56:45.392Z,80.89
2022-09-27T09:57:45.387Z,79.36
2022-09-27T09:58:45.373Z,80.38
2022-09-27T09:59:45.408Z,80.99
2022-09-27T10:00:45.383Z,81.67
2022-09-27T10:01:45.336Z,81.12
2022-09-27T10:02:45.337Z,80.00
2022-09-27T10:03:45.339Z,81.23
2022-09-27T10:04:45.331Z,80.27
2022-09-27T10:05:45.338Z,80.16
2022-09-27T10:06:45.274Z,80.27
2022-09-27T10:07:45.265Z,79.32
2022-09-27T10:08:45.285Z,77.82
2022-09-27T10:09:45.267Z,78.84
2022-09-27T10:10:45.272Z,79.62
2022-09-27T10:11:45.219Z,78.70
2022-09-27T10:12:45.207Z,77.37
2022-09-27T10:13:45.204Z,77.27
2022-09-27T10:14:45.204Z,78.84
2022-09-27T10:15:45.219Z,77.72
2022-09-27T10:16:45.224Z,78.12
2022-09-27T10:17:45.155Z,77.92
2022-09-27T10:18:49.718Z,79.25
2022-09-27T10:19:45.149Z,78.06
2022-09-27T10:20:45.138Z,79.08
2022-09-27T10:21:45.183Z,79.39
2022-09-27T10:22:45.108Z,79.39
2022-09-27T10:23:45.104Z,79.25
2022-09-27T10:24:45.075Z,78.37
2022-09-27T10:25:45.075Z,78.88
2022-09-27T10:26:45.611Z,79.59
2022-09-27T10:27:45.083Z,78.88
2022-09-27T10:28:45.038Z,78.12
2022-09-27T10:29:45.020Z,79.55
2022-09-27T10:30:45.013Z,78.84
2022-09-27T10:31:45.196Z,80.07
2022-09-27T10:32:45.010Z,79.08
2022-09-27T10:33:44.976Z,79.35
2022-09-27T10:34:44.967Z,79.04
2022-09-27T10:35:44.957Z,79.14
2022-09-27T10:36:44.985Z,77.45
2022-09-27T10:37:44.961Z,77.25
2022-09-27T10:38:44.954Z,78.88
2022-09-27T10:39:44.934Z,78.47
2022-09-27T10:40:44.959Z,77.96
2022-09-27T10:41:44.892Z,78.47
2022-09-27T10:42:44.908Z,79.18
2022-09-27T10:43:44.905Z,78.16
2022-09-27T10:44:44.873Z,79.18
2022-09-27T10:45:44.867Z,79.12
2022-09-27T10:46:44.832Z,79.69
2022-09-27T10:47:45.166Z,79.04
2022-09-27T10:48:44.820Z,78.74
2022-09-27T10:49:44.951Z,79.72
2022-09-27T10:50:51.405Z,77.98
2022-09-27T10:51:45.872Z,77.17
2022-09-27T10:52:44.765Z,77.68
2022-09-27T10:53:44.785Z,78.09
2022-09-27T10:54:44.759Z,77.17
2022-09-27T10:55:44.763Z,77.27
2022-09-27T10:56:44.721Z,76.56
2022-09-27T10:57:45.310Z,75.64
2022-09-27T10:58:44.698Z,75.85
2022-09-27T10:59:52.315Z,77.68
2022-09-27T11:00:44.756Z,77.72
2022-09-27T11:01:44.705Z,77.68
2022-09-27T11:02:44.653Z,75.88
2022-09-27T11:03:44.645Z,78.37
2022-09-27T11:04:44.671Z,78.64
2022-09-27T11:05:44.646Z,78.12
2022-09-27T11:06:44.640Z,77.41
2022-09-27T11:07:44.642Z,78.19
2022-09-27T11:08:44.591Z,79.11
2022-09-27T11:09:44.602Z,77.17
2022-09-27T11:10:44.609Z,76.22
2022-09-27T11:11:44.581Z,77.30
2022-09-27T11:12:44.562Z,76.18
2022-09-27T11:13:44.593Z,77.26
2022-09-27T11:14:44.572Z,74.93
2022-09-27T11:15:44.516Z,75.43
2022-09-27T11:16:44.643Z,76.01
2022-09-27T11:17:44.508Z,75.20
2022-09-27T11:18:44.511Z,74.08
2022-09-27T11:19:44.582Z,74.79
2022-09-27T11:20:44.453Z,74.08
2022-09-27T11:21:44.452Z,74.99
2022-09-27T11:22:44.433Z,74.52
2022-09-27T11:23:44.446Z,74.86
2022-09-27T11:24:44.456Z,75.88
2022-09-27T11:25:44.446Z,75.47
2022-09-27T11:26:44.393Z,75.06
2022-09-27T11:27:44.423Z,75.47
2022-09-27T11:28:44.401Z,75.10
2022-09-27T11:29:44.626Z,74.90
2022-09-27T11:30:44.348Z,74.11
2022-09-27T11:31:44.369Z,74.93
2022-09-27T11:32:44.366Z,75.03
2022-09-27T11:33:44.322Z,74.21
2022-09-27T11:34:44.332Z,74.25
2022-09-27T11:35:44.339Z,75.85
2022-09-27T11:36:44.276Z,75.44
2022-09-27T11:37:44.283Z,75.85
2022-09-27T11:38:53.505Z,74.73
2022-09-27T11:39:45.698Z,75.54
2022-09-27T11:40:44.338Z,74.38
2022-09-27T11:41:44.237Z,74.58
2022-09-27T11:42:44.208Z,74.58
2022-09-27T11:43:44.221Z,73.57
2022-09-27T11:44:44.293Z,73.06
2022-09-27T11:46:10.882Z,74.69
2022-09-27T11:46:45.268Z,73.16
2022-09-27T11:47:44.328Z,72.34
2022-09-27T11:48:44.146Z,72.99
2022-09-27T11:49:44.239Z,72.99
2022-09-27T11:50:44.135Z,72.69
2022-09-27T11:51:44.158Z,75.16
2022-09-27T11:52:44.128Z,76.19
2022-09-27T11:53:44.086Z,75.27
2022-09-27T11:54:44.193Z,74.86
2022-09-27T11:55:44.073Z,75.78
2022-09-27T11:56:44.081Z,75.88
2022-09-27T11:57:44.084Z,77.41
2022-09-27T11:58:44.036Z,75.16
2022-09-27T11:59:44.063Z,76.29
2022-09-27T12:00:44.032Z,77.31
2022-09-27T12:01:44.087Z,75.88
2022-09-27T12:02:44.085Z,76.29
2022-09-27T12:03:44.022Z,74.96
2022-09-27T12:04:43.966Z,74.76
2022-09-27T12:05:43.983Z,74.62
2022-09-27T12:06:43.954Z,73.03
2022-09-27T12:07:43.957Z,73.43
2022-09-27T12:08:43.957Z,72.21
2022-09-27T12:09:43.979Z,72.11
2022-09-27T12:10:43.899Z,73.47
2022-09-27T12:11:43.886Z,74.79
2022-09-27T12:12:43.965Z,74.79
2022-09-27T12:13:43.900Z,75.00
2022-09-27T12:14:44.076Z,73.84
2022-09-27T12:15:43.878Z,75.48
2022-09-27T12:16:43.829Z,74.45
2022-09-27T12:17:43.823Z,75.00
2022-09-27T12:18:46.858Z,73.57
2022-09-27T12:19:44.828Z,74.83
2022-09-27T12:20:43.825Z,75.31
2022-09-27T12:21:43.806Z,75.61
2022-09-27T12:23:00.230Z,75.10
2022-09-27T12:23:44.774Z,74.29
2022-09-27T12:24:43.794Z,75.00
2022-09-27T12:25:43.763Z,74.69
2022-09-27T12:26:43.762Z,74.32
2022-09-27T12:27:43.758Z,74.11
2022-09-27T12:28:43.728Z,74.22
2022-09-27T12:29:43.789Z,73.81
2022-09-27T12:30:43.708Z,75.24
2022-09-27T12:31:43.719Z,74.22
2022-09-27T12:32:43.658Z,74.15
2022-09-27T12:33:43.658Z,74.35
2022-09-27T12:34:43.629Z,73.84
2022-09-27T12:35:43.660Z,74.01
2022-09-27T12:36:43.637Z,75.27
2022-09-27T12:37:43.630Z,75.48
2022-09-27T12:38:43.592Z,74.73
2022-09-27T12:39:43.581Z,74.15
2022-09-27T12:40:43.626Z,74.32
2022-09-27T12:41:43.708Z,74.83
2022-09-27T12:42:43.711Z,74.59
2022-09-27T12:43:45.943Z,75.92
2022-09-27T12:44:47.579Z,75.71
2022-09-27T12:45:44.537Z,75.51
2022-09-27T12:46:43.559Z,75.61
2022-09-27T12:47:43.494Z,75.51
2022-09-27T12:48:43.505Z,75.37
2022-09-27T12:49:43.470Z,75.37
2022-09-27T12:50:43.517Z,75.88
2022-09-27T12:51:43.444Z,77.21
2022-09-27T12:52:43.441Z,76.25